createdAt,value
2022-09-01T00:00:02.443Z,100856.41
2022-09-01T00:02:31.643Z,100857.72
2022-09-01T00:04:59.911Z,100857.84
2022-09-01T00:07:30.201Z,100849.84
2022-09-01T00:10:00.215Z,100846.44
2022-09-01T00:12:29.086Z,100854.06
2022-09-01T00:14:58.988Z,100850.13
2022-09-01T00:17:27.793Z,100855.72
2022-09-01T00:19:55.969Z,100849.78
2022-09-01T00:22:23.963Z,100857.16
2022-09-01T00:24:51.989Z,100865.72
2022-09-01T00:27:21.369Z,100856.72
2022-09-01T00:29:56.523Z,100864.47
2022-09-01T00:32:25.352Z,100865.03
2022-09-01T00:34:54.001Z,100854.59
2022-09-01T00:37:22.091Z,100856.94
2022-09-01T00:39:50.040Z,100849.09
2022-09-01T00:42:18.335Z,100844.81
2022-09-01T00:44:47.736Z,100834.59
2022-09-01T00:47:17.867Z,100850.53
2022-09-01T00:49:49.936Z,100857.53
2022-09-01T00:52:23.220Z,100859.22
2022-09-01T00:54:56.422Z,100810.69
2022-09-01T00:57:25.196Z,100821.72
2022-09-01T00:59:58.278Z,100848.84
2022-09-01T01:02:26.716Z,100836.50
2022-09-01T01:05:03.741Z,100847.53
2022-09-01T01:07:49.236Z,100852.06
2022-09-01T01:10:20.270Z,100846.75
2022-09-01T01:12:51.888Z,100843.41
2022-09-01T01:15:21.739Z,100839.97
2022-09-01T01:17:49.622Z,100842.72
2022-09-01T01:20:37.521Z,100841.16
2022-09-01T01:23:16.673Z,100834.72
2022-09-01T01:25:50.396Z,100830.56
2022-09-01T01:28:22.251Z,100835.34
2022-09-01T01:30:57.284Z,100832.69
2022-09-01T01:33:29.823Z,100821.66
2022-09-01T01:35:58.234Z,100824.09
2022-09-01T01:38:27.529Z,100824.84
2022-09-01T01:40:57.027Z,100832.44
2022-09-01T01:43:26.403Z,100807.69
2022-09-01T01:45:59.176Z,100821.97
2022-09-01T01:48:28.224Z,100800.34
2022-09-01T01:51:00.783Z,100818.91
2022-09-01T01:53:29.575Z,100821.41
2022-09-01T01:56:01.098Z,100830.69
2022-09-01T01:58:30.808Z,100825.00
2022-09-01T02:00:59.311Z,100820.94
2022-09-01T02:03:30.765Z,100818.22
2022-09-01T02:06:07.757Z,100823.81
2022-09-01T02:08:36.811Z,100796.31
2022-09-01T02:11:07.950Z,100812.97
2022-09-01T02:13:36.026Z,100818.78
2022-09-01T02:16:07.562Z,100816.31
2022-09-01T02:18:37.951Z,100816.88
2022-09-01T02:21:15.048Z,100805.00
2022-09-01T02:23:44.520Z,100821.88
2022-09-01T02:26:16.577Z,100813.59
2022-09-01T02:28:50.965Z,100815.94
2022-09-01T02:31:22.965Z,100819.88
2022-09-01T02:33:50.899Z,100815.56
2022-09-01T02:38:53.639Z,100816.41
2022-09-01T02:41:30.026Z,100814.41
2022-09-01T02:44:02.288Z,100817.97
2022-09-01T02:46:31.076Z,100801.31
2022-09-01T02:49:00.499Z,100816.81
2022-09-01T02:51:28.785Z,100814.53
2022-09-01T02:53:56.648Z,100793.81
2022-09-01T02:56:27.256Z,100809.97
2022-09-01T02:58:55.551Z,100811.28
2022-09-01T03:01:26.186Z,100806.53
2022-09-01T03:03:56.364Z,100813.56
2022-09-01T03:06:26.011Z,100811.50
2022-09-01T03:09:00.329Z,100807.72
2022-09-01T03:11:31.688Z,100803.09
2022-09-01T03:14:00.220Z,100789.66
2022-09-01T03:16:30.322Z,100790.72
2022-09-01T03:18:59.164Z,100799.25
2022-09-01T03:21:32.027Z,100807.13
2022-09-01T03:24:02.144Z,100804.50
2022-09-01T03:26:32.615Z,100796.66
2022-09-01T03:29:00.561Z,100796.41
2022-09-01T03:31:30.990Z,100797.94
2022-09-01T03:34:00.638Z,100806.97
2022-09-01T03:36:30.058Z,100806.50
2022-09-01T03:38:58.687Z,100801.16
2022-09-01T03:41:29.481Z,100806.16
2022-09-01T03:44:03.423Z,100804.38
2022-09-01T03:46:36.296Z,100793.78
2022-09-01T03:49:07.557Z,100800.56
2022-09-01T03:51:39.478Z,100796.16
2022-09-01T03:54:07.918Z,100800.09
2022-09-01T03:56:36.430Z,100791.41
2022-09-01T03:59:07.609Z,100789.97
2022-09-01T04:01:41.543Z,100803.19
2022-09-01T04:04:09.524Z,100802.94
2022-09-01T04:06:38.515Z,100795.69
2022-09-01T04:09:06.586Z,100800.19
2022-09-01T04:11:35.104Z,100797.22
2022-09-01T04:14:03.235Z,100797.72
2022-09-01T04:16:51.732Z,100804.47
2022-09-01T04:19:25.886Z,100798.97
2022-09-01T04:21:56.330Z,100801.09
2022-09-01T04:24:28.230Z,100811.91
2022-09-01T04:26:58.740Z,100807.16
2022-09-01T04:29:28.159Z,100807.63
2022-09-01T04:32:02.262Z,100797.75
2022-09-01T04:34:37.487Z,100816.78
2022-09-01T04:37:10.142Z,100812.75
2022-09-01T04:39:39.240Z,100812.03
2022-09-01T04:42:09.124Z,100806.84
2022-09-01T04:44:37.949Z,100808.50
2022-09-01T04:47:11.489Z,100806.69
2022-09-01T04:49:39.433Z,100811.81
2022-09-01T04:52:07.425Z,100803.50
2022-09-01T04:54:37.507Z,100818.22
2022-09-01T04:57:07.028Z,100819.88
2022-09-01T04:59:35.815Z,100818.09
2022-09-01T05:02:07.759Z,100815.38
2022-09-01T05:04:46.345Z,100808.34
2022-09-01T05:07:17.676Z,100818.03
2022-09-01T05:09:45.884Z,100825.88
2022-09-01T05:12:16.854Z,100818.88
2022-09-01T05:14:48.634Z,100823.88
2022-09-01T05:17:17.624Z,100825.31
2022-09-01T05:19:51.193Z,100836.97
2022-09-01T05:22:21.988Z,100816.09
2022-09-01T05:24:51.418Z,100806.03
2022-09-01T05:27:23.400Z,100824.78
2022-09-01T05:29:51.290Z,100824.88
2022-09-01T05:32:20.121Z,100829.63
2022-09-01T05:34:51.834Z,100820.72
2022-09-01T05:37:21.606Z,100829.88
2022-09-01T05:39:50.331Z,100833.81
2022-09-01T05:42:18.348Z,100828.66
2022-09-01T05:44:47.932Z,100820.09
2022-09-01T05:47:21.835Z,100825.25
2022-09-01T05:49:53.501Z,100821.66
2022-09-01T05:52:26.466Z,100828.13
2022-09-01T05:54:55.847Z,100829.91
2022-09-01T05:57:34.237Z,100824.06
2022-09-01T06:00:02.745Z,100832.22
2022-09-01T06:02:33.865Z,100828.28
2022-09-01T06:05:03.202Z,100831.69
2022-09-01T06:07:31.123Z,100827.97
2022-09-01T06:10:29.669Z,100829.84
2022-09-01T06:12:58.980Z,100828.81
2022-09-01T06:15:29.471Z,100830.16
2022-09-01T06:17:57.497Z,100834.41
2022-09-01T06:20:27.503Z,100849.09
2022-09-01T06:22:56.015Z,100839.63
2022-09-01T06:25:26.442Z,100844.63
2022-09-01T06:27:54.428Z,100835.38
2022-09-01T06:30:24.428Z,100836.88
2022-09-01T06:32:53.192Z,100845.56
2022-09-01T06:35:22.148Z,100842.97
2022-09-01T06:37:51.646Z,100848.78
2022-09-01T06:40:19.485Z,100845.31
2022-09-01T06:42:48.955Z,100849.22
2022-09-01T06:45:18.857Z,100840.00
2022-09-01T06:47:51.015Z,100845.69
2022-09-01T06:55:59.722Z,100845.94
2022-09-01T06:58:27.677Z,100841.28
2022-09-01T07:00:55.695Z,100844.22
2022-09-01T07:03:25.059Z,100843.63
2022-09-01T07:06:09.561Z,100848.19
2022-09-01T07:14:22.207Z,100858.81
2022-09-01T07:16:53.344Z,100843.91
2022-09-01T07:19:21.607Z,100856.13
2022-09-01T07:24:40.258Z,100852.44
2022-09-01T07:27:09.286Z,100854.88
2022-09-01T07:29:39.348Z,100848.22
2022-09-01T07:35:00.170Z,100862.03
2022-09-01T07:43:17.727Z,100850.72
2022-09-01T07:45:58.340Z,100855.31
2022-09-01T07:54:07.130Z,100852.22
2022-09-01T07:56:40.033Z,100859.31
2022-09-01T07:59:09.528Z,100852.88
2022-09-01T08:01:43.826Z,100856.13
2022-09-01T08:04:12.148Z,100863.03
2022-09-01T08:06:40.976Z,100854.38
2022-09-01T08:09:11.860Z,100861.94
2022-09-01T08:12:03.168Z,100859.59
2022-09-01T08:14:35.035Z,100867.41
2022-09-01T08:17:34.171Z,100864.44
2022-09-01T08:22:23.335Z,100866.53
2022-09-01T08:24:51.371Z,100867.31
2022-09-01T08:27:20.887Z,100875.94
2022-09-01T08:29:48.869Z,100869.84
2022-09-01T08:32:16.836Z,100873.91
2022-09-01T08:34:44.793Z,100863.88
2022-09-01T08:37:13.173Z,100870.63
2022-09-01T08:39:42.452Z,100869.78
2022-09-01T08:42:20.762Z,100868.47
2022-09-01T08:44:59.133Z,100866.06
2022-09-01T08:47:35.559Z,100860.53
2022-09-01T08:50:13.158Z,100862.16
2022-09-01T08:52:44.910Z,100860.31
2022-09-01T08:55:17.441Z,100857.81
2022-09-01T08:57:50.103Z,100853.13
2022-09-01T09:00:23.385Z,100855.31
2022-09-01T09:03:06.163Z,100852.56
2022-09-01T09:05:48.602Z,100857.81
2022-09-01T09:09:03.580Z,100860.56
2022-09-01T09:11:48.444Z,100858.34
2022-09-01T09:14:29.274Z,100856.13
2022-09-01T09:17:01.848Z,100862.47
2022-09-01T09:19:32.388Z,100854.19
2022-09-01T09:22:02.662Z,100854.72
2022-09-01T09:24:47.588Z,100844.81
2022-09-01T09:27:19.869Z,100844.53
2022-09-01T09:29:51.030Z,100844.81
2022-09-01T09:32:28.112Z,100839.84
2022-09-01T09:35:19.938Z,100840.66
2022-09-01T09:37:48.275Z,100835.94
2022-09-01T09:40:18.933Z,100826.56
2022-09-01T09:43:04.426Z,100821.06
2022-09-01T09:45:34.752Z,100829.09
2022-09-01T09:48:07.882Z,100819.44
2022-09-01T09:50:40.834Z,100820.50
2022-09-01T09:53:19.549Z,100823.00
2022-09-01T09:55:56.222Z,100809.19
2022-09-01T09:58:28.130Z,100812.97
2022-09-01T10:01:03.732Z,100809.34
2022-09-01T10:03:43.058Z,100815.16
2022-09-01T10:06:17.662Z,100805.75
2022-09-01T10:08:53.185Z,100804.47
2022-09-01T10:11:35.354Z,100798.09
2022-09-01T10:14:07.106Z,100790.47
2022-09-01T10:16:39.828Z,100797.44
2022-09-01T10:19:13.894Z,100796.84
2022-09-01T10:21:46.238Z,100796.69
2022-09-01T10:24:21.555Z,100790.75
2022-09-01T10:26:54.546Z,100799.09
2022-09-01T10:29:27.404Z,100802.69
2022-09-01T10:32:28.021Z,100784.75
2022-09-01T10:34:47.436Z,100796.00
2022-09-01T10:37:16.298Z,100781.47
2022-09-01T10:40:21.459Z,100787.25
2022-09-01T10:42:57.340Z,100782.44
2022-09-01T10:45:34.090Z,100778.00
2022-09-01T10:48:46.269Z,100786.72
2022-09-01T10:51:51.506Z,100784.09
2022-09-01T10:54:52.738Z,100783.66
2022-09-01T10:57:42.376Z,100760.41
2022-09-01T11:04:04.163Z,100761.41
2022-09-01T11:06:34.712Z,100764.50
2022-09-01T11:09:07.662Z,100764.94
2022-09-01T11:11:42.559Z,100749.44
2022-09-01T11:14:19.849Z,100767.59
2022-09-01T11:17:15.552Z,100759.78
2022-09-01T11:19:46.703Z,100756.34
2022-09-01T11:22:38.070Z,100750.19
2022-09-01T11:25:15.111Z,100750.28
2022-09-01T11:28:04.139Z,100741.50
2022-09-01T11:30:41.760Z,100741.31
2022-09-01T11:33:20.855Z,100741.03
2022-09-01T11:35:49.103Z,100747.66
2022-09-01T11:38:20.630Z,100743.56
2022-09-01T11:40:57.144Z,100735.88
2022-09-01T11:43:27.433Z,100743.84
2022-09-01T11:46:08.158Z,100742.28
2022-09-01T11:48:37.535Z,100737.06
2022-09-01T11:51:05.842Z,100729.78
2022-09-01T11:53:33.838Z,100735.63
2022-09-01T11:56:18.145Z,100719.94
2022-09-01T11:58:46.091Z,100715.94
2022-09-01T12:01:17.254Z,100716.13
2022-09-01T12:03:47.019Z,100713.94
2022-09-01T12:06:23.469Z,100712.28
2022-09-01T12:08:58.174Z,100707.25
2022-09-01T12:11:31.341Z,100706.03
2022-09-01T12:14:02.497Z,100712.31
2022-09-01T12:16:36.755Z,100698.97
2022-09-01T12:19:06.588Z,100697.69
2022-09-01T12:21:38.279Z,100699.84
2022-09-01T12:24:17.013Z,100686.56
2022-09-01T12:26:47.957Z,100688.63
2022-09-01T12:29:16.944Z,100693.50
2022-09-01T12:31:47.089Z,100674.75
2022-09-01T12:34:29.506Z,100680.72
2022-09-01T12:37:09.326Z,100672.28
2022-09-01T12:39:40.082Z,100678.59
2022-09-01T12:42:25.307Z,100677.28
2022-09-01T12:44:56.073Z,100673.91
2022-09-01T12:47:50.940Z,100669.97
2022-09-01T12:50:44.122Z,100653.16
2022-09-01T12:53:20.477Z,100667.50
2022-09-01T12:56:17.738Z,100671.81
2022-09-01T12:58:54.669Z,100661.97
2022-09-01T13:01:29.553Z,100665.66
2022-09-01T13:04:16.560Z,100657.78
2022-09-01T13:06:44.415Z,100658.44
2022-09-01T13:09:12.329Z,100658.88
2022-09-01T13:14:31.627Z,100650.03
2022-09-01T13:16:59.896Z,100654.72
2022-09-01T13:19:30.230Z,100642.22
2022-09-01T13:21:58.693Z,100640.47
2022-09-01T13:24:30.253Z,100636.53
2022-09-01T13:29:48.965Z,100643.22
2022-09-01T13:32:20.493Z,100638.22
2022-09-01T13:34:54.739Z,100628.69
2022-09-01T13:37:24.488Z,100627.13
2022-09-01T13:39:52.695Z,100630.84
2022-09-01T13:42:21.211Z,100621.78
2022-09-01T13:44:54.119Z,100630.88
2022-09-01T13:47:31.840Z,100629.09
2022-09-01T13:50:10.778Z,100630.53
2022-09-01T13:52:41.240Z,100629.44
2022-09-01T13:55:11.825Z,100623.09
2022-09-01T13:57:39.984Z,100622.00
2022-09-01T14:00:12.313Z,100615.38
2022-09-01T14:02:42.998Z,100620.53
2022-09-01T14:05:11.609Z,100618.47
2022-09-01T14:07:39.594Z,100613.31
2022-09-01T14:10:08.899Z,100603.91
2022-09-01T14:12:37.469Z,100593.41
2022-09-01T14:15:17.026Z,100591.34
2022-09-01T14:17:49.738Z,100599.34
2022-09-01T14:20:21.124Z,100589.78
2022-09-01T14:22:50.844Z,100588.75
2022-09-01T14:25:20.158Z,100595.91
2022-09-01T14:27:49.658Z,100590.25
2022-09-01T14:30:20.987Z,100592.66
2022-09-01T14:32:54.257Z,100590.53
2022-09-01T14:35:28.804Z,100591.75
2022-09-01T14:37:58.970Z,100587.63
2022-09-01T14:40:29.394Z,100584.38
2022-09-01T14:42:57.823Z,100584.84
2022-09-01T14:45:28.778Z,100581.75
2022-09-01T14:48:01.584Z,100568.81
2022-09-01T14:50:32.575Z,100571.94
2022-09-01T14:53:02.650Z,100562.13
2022-09-01T14:55:32.670Z,100556.03
2022-09-01T14:58:01.393Z,100556.91
2022-09-01T15:00:31.711Z,100552.59
2022-09-01T15:03:01.176Z,100553.41
2022-09-01T15:05:29.292Z,100549.72
2022-09-01T15:08:08.592Z,100553.72
2022-09-01T15:10:36.767Z,100541.66
2022-09-01T15:13:05.219Z,100542.25
2022-09-01T15:15:33.802Z,100547.16
2022-09-01T15:18:03.172Z,100532.38
2022-09-01T15:20:46.414Z,100551.13
2022-09-01T15:23:16.371Z,100535.84
2022-09-01T15:25:44.706Z,100541.66
2022-09-01T15:28:13.421Z,100544.59
2022-09-01T15:30:43.977Z,100530.00
2022-09-01T15:33:15.739Z,100532.09
2022-09-01T15:35:44.938Z,100537.97
2022-09-01T15:38:17.947Z,100531.00
2022-09-01T15:40:55.462Z,100546.75
2022-09-01T15:43:27.435Z,100543.44
2022-09-01T15:45:58.369Z,100543.81
2022-09-01T15:48:29.630Z,100543.28
2022-09-01T15:51:27.899Z,100551.16
2022-09-01T15:53:58.712Z,100546.59
2022-09-01T15:56:27.099Z,100546.22
2022-09-01T15:59:02.657Z,100536.88
2022-09-01T16:01:32.671Z,100547.13
2022-09-01T16:04:02.343Z,100553.41
2022-09-01T16:06:31.503Z,100548.53
2022-09-01T16:08:59.649Z,100546.50
2022-09-01T16:11:28.045Z,100543.53
2022-09-01T16:13:57.012Z,100540.97
2022-09-01T16:16:42.031Z,100544.16
2022-09-01T16:19:25.124Z,100549.41
2022-09-01T16:21:59.123Z,100535.59
2022-09-01T16:24:27.501Z,100538.81
2022-09-01T16:26:58.091Z,100542.28
2022-09-01T16:29:35.517Z,100531.28
2022-09-01T16:32:03.830Z,100526.69
2022-09-01T16:34:34.710Z,100532.16
2022-09-01T16:37:08.476Z,100526.00
2022-09-01T16:39:42.444Z,100531.03
2022-09-01T16:42:22.296Z,100544.41
2022-09-01T16:45:01.175Z,100545.44
2022-09-01T16:47:41.879Z,100532.31
2022-09-01T16:50:20.584Z,100527.47
2022-09-01T16:53:05.668Z,100542.88
2022-09-01T16:55:42.149Z,100542.03
2022-09-01T16:58:21.489Z,100537.63
2022-09-01T17:01:02.195Z,100535.56
2022-09-01T17:03:43.115Z,100516.34
2022-09-01T17:06:21.835Z,100524.66
2022-09-01T17:08:54.926Z,100530.91
2022-09-01T17:11:34.030Z,100538.69
2022-09-01T17:14:04.149Z,100526.06
2022-09-01T17:16:37.220Z,100527.59
2022-09-01T17:19:07.944Z,100534.66
2022-09-01T17:21:45.972Z,100526.41
2022-09-01T17:24:30.207Z,100522.50
2022-09-01T17:27:07.883Z,100520.50
2022-09-01T17:29:44.963Z,100530.88
2022-09-01T17:32:35.822Z,100527.16
2022-09-01T17:35:15.091Z,100525.81
2022-09-01T17:38:03.776Z,100518.41
2022-09-01T17:40:50.358Z,100531.09
2022-09-01T17:43:26.670Z,100530.69
2022-09-01T17:46:04.419Z,100532.53
2022-09-01T17:48:40.913Z,100532.47
2022-09-01T17:51:13.832Z,100545.63
2022-09-01T17:53:52.976Z,100540.63
2022-09-01T17:56:34.827Z,100542.81
2022-09-01T17:59:11.545Z,100547.69
2022-09-01T18:01:47.204Z,100535.38
2022-09-01T18:04:36.089Z,100525.81
2022-09-01T18:07:10.894Z,100537.97
2022-09-01T18:09:44.477Z,100537.84
2022-09-01T18:12:18.632Z,100545.91
2022-09-01T18:14:57.810Z,100549.59
2022-09-01T18:17:31.421Z,100555.13
2022-09-01T18:20:08.037Z,100559.81
2022-09-01T18:22:43.086Z,100565.44
2022-09-01T18:25:19.473Z,100569.28
2022-09-01T18:27:48.038Z,100574.91
2022-09-01T18:30:26.185Z,100577.41
2022-09-01T18:33:15.010Z,100576.34
2022-09-01T18:35:47.921Z,100573.34
2022-09-01T18:38:35.484Z,100581.38
2022-09-01T18:41:16.649Z,100588.78
2022-09-01T18:43:49.739Z,100581.91
2022-09-01T18:46:24.055Z,100590.13
2022-09-01T18:49:03.412Z,100593.97
2022-09-01T18:51:47.696Z,100593.97
2022-09-01T18:54:19.627Z,100593.13
2022-09-01T18:56:56.318Z,100591.72
2022-09-01T18:59:40.290Z,100601.28
2022-09-01T19:02:23.798Z,100599.94
2022-09-01T19:04:58.353Z,100596.34
2022-09-01T19:07:36.822Z,100600.19
2022-09-01T19:10:16.291Z,100603.81
2022-09-01T19:12:55.021Z,100612.94
2022-09-01T19:15:33.122Z,100608.81
2022-09-01T19:18:16.267Z,100608.00
2022-09-01T19:20:51.262Z,100602.22
2022-09-01T19:23:26.699Z,100612.13
2022-09-01T19:26:03.192Z,100609.28
2022-09-01T19:28:43.407Z,100608.31
2022-09-01T19:31:27.073Z,100611.81
2022-09-01T19:33:57.541Z,100623.88
2022-09-01T19:36:34.522Z,100619.66
2022-09-01T19:39:02.498Z,100623.97
2022-09-01T19:41:35.753Z,100620.72
2022-09-01T19:44:12.810Z,100629.78
2022-09-01T19:46:47.051Z,100632.56
2022-09-01T19:49:24.694Z,100622.41
2022-09-01T19:51:58.430Z,100627.25
2022-09-01T19:54:34.880Z,100623.13
2022-09-01T19:57:07.767Z,100634.66
2022-09-01T19:59:48.472Z,100628.56
2022-09-01T20:02:27.815Z,100638.13
2022-09-01T20:05:04.343Z,100638.06
2022-09-01T20:07:37.740Z,100626.72
2022-09-01T20:10:20.031Z,100636.09
2022-09-01T20:12:55.238Z,100632.72
2022-09-01T20:15:32.077Z,100631.28
2022-09-01T20:18:04.927Z,100629.31
2022-09-01T20:20:40.107Z,100633.72
2022-09-01T20:23:12.953Z,100637.53
2022-09-01T20:25:47.373Z,100635.78
2022-09-01T20:28:28.362Z,100641.56
2022-09-01T20:31:03.108Z,100648.25
2022-09-01T20:33:38.177Z,100641.75
2022-09-01T20:36:12.050Z,100654.25
2022-09-01T20:39:05.587Z,100646.59
2022-09-01T20:41:39.823Z,100637.66
2022-09-01T20:44:13.545Z,100644.81
2022-09-01T20:46:42.954Z,100642.66
2022-09-01T20:49:17.039Z,100650.78
2022-09-01T20:51:53.128Z,100652.69
2022-09-01T20:54:30.828Z,100649.09
2022-09-01T20:57:09.775Z,100655.13
2022-09-01T20:59:46.365Z,100658.94
2022-09-01T21:02:29.622Z,100660.13
2022-09-01T21:05:06.399Z,100654.19
2022-09-01T21:07:38.033Z,100662.59
2022-09-01T21:10:13.085Z,100666.47
2022-09-01T21:12:51.719Z,100658.78
2022-09-01T21:15:30.908Z,100662.13
2022-09-01T21:18:12.993Z,100673.72
2022-09-01T21:20:57.595Z,100652.53
2022-09-01T21:23:26.375Z,100653.06
2022-09-01T21:25:54.453Z,100667.69
2022-09-01T21:28:26.372Z,100654.81
2022-09-01T21:30:57.140Z,100663.69
2022-09-01T21:33:30.145Z,100665.31
2022-09-01T21:35:58.876Z,100654.91
2022-09-01T21:38:27.167Z,100650.97
2022-09-01T21:40:55.653Z,100661.69
2022-09-01T21:43:28.252Z,100655.97
2022-09-01T21:45:56.390Z,100651.56
2022-09-01T21:48:26.416Z,100664.25
2022-09-01T21:50:54.416Z,100652.66
2022-09-01T21:53:22.409Z,100657.91
2022-09-01T21:55:50.346Z,100648.78
2022-09-01T21:58:18.681Z,100660.88
2022-09-01T22:00:48.321Z,100655.56
2022-09-01T22:03:16.618Z,100658.63
2022-09-01T22:05:45.936Z,100651.13
2022-09-01T22:08:17.142Z,100654.25
2022-09-01T22:10:48.630Z,100652.88
2022-09-01T22:13:17.465Z,100648.78
2022-09-01T22:15:47.184Z,100650.88
2022-09-01T22:18:15.837Z,100645.94
2022-09-01T22:20:46.191Z,100645.78
2022-09-01T22:23:15.193Z,100649.50
2022-09-01T22:25:45.494Z,100640.72
2022-09-01T22:28:14.335Z,100645.31
2022-09-01T22:30:46.460Z,100638.88
2022-09-01T22:33:15.698Z,100636.03
2022-09-01T22:35:47.433Z,100632.91
2022-09-01T22:38:17.190Z,100643.47
2022-09-01T22:40:47.020Z,100635.59
2022-09-01T22:43:18.094Z,100646.50
2022-09-01T22:45:55.208Z,100636.66
2022-09-01T22:48:26.971Z,100633.34
2022-09-01T22:51:34.007Z,100647.69
2022-09-01T22:54:03.718Z,100646.03
2022-09-01T22:56:34.140Z,100647.63
2022-09-01T22:59:04.434Z,100642.66
2022-09-01T23:01:36.230Z,100645.31
2022-09-01T23:04:06.542Z,100647.81
2022-09-01T23:06:39.781Z,100643.94
2022-09-01T23:09:10.156Z,100644.34
2022-09-01T23:11:38.459Z,100647.41
2022-09-01T23:14:06.736Z,100635.97
2022-09-01T23:16:35.193Z,100637.47
2022-09-01T23:19:05.820Z,100619.19
2022-09-01T23:21:37.334Z,100643.94
2022-09-01T23:24:06.574Z,100635.72
2022-09-01T23:26:34.911Z,100638.34
2022-09-01T23:29:04.211Z,100635.06
2022-09-01T23:31:34.650Z,100625.59
2022-09-01T23:34:02.849Z,100636.56
2022-09-01T23:36:31.045Z,100622.94
2022-09-01T23:39:00.631Z,100627.16
2022-09-01T23:41:32.289Z,100632.06
2022-09-01T23:44:02.810Z,100631.88
2022-09-01T23:46:32.650Z,100627.94
2022-09-01T23:49:00.851Z,100630.66
2022-09-01T23:51:29.095Z,100632.31
2022-09-01T23:53:57.732Z,100635.78
2022-09-01T23:56:29.160Z,100627.81
2022-09-01T23:58:57.703Z,100625.31
